createdAt,value
2023-04-25T00:01:07.570Z,96779.13
2023-04-25T00:03:37.738Z,96793.78
2023-04-25T00:06:06.527Z,96783.13
2023-04-25T00:08:35.518Z,96783.44
2023-04-25T00:11:04.343Z,96782.97
2023-04-25T00:13:32.842Z,96780.59
2023-04-25T00:16:01.293Z,96775.00
2023-04-25T00:18:30.143Z,96782.63
2023-04-25T00:21:00.750Z,96785.00
2023-04-25T00:23:28.749Z,96780.09
2023-04-25T00:25:57.273Z,96779.91
2023-04-25T00:28:25.919Z,96785.00
2023-04-25T00:30:54.063Z,96779.75
2023-04-25T00:33:22.377Z,96775.44
2023-04-25T00:35:50.951Z,96779.41
2023-04-25T00:38:20.399Z,96771.66
2023-04-25T00:40:48.625Z,96771.75
2023-04-25T00:43:17.431Z,96765.41
2023-04-25T00:45:45.613Z,96753.97
2023-04-25T00:48:15.292Z,96756.47
2023-04-25T00:50:44.159Z,96752.03
2023-04-25T00:53:12.434Z,96753.00
2023-04-25T00:55:42.019Z,96745.56
2023-04-25T00:58:10.320Z,96746.97
2023-04-25T01:00:39.262Z,96747.13
2023-04-25T01:03:08.631Z,96747.13
2023-04-25T01:05:37.109Z,96747.13
2023-04-25T01:08:05.616Z,96740.28
2023-04-25T01:10:34.392Z,96746.00
2023-04-25T01:13:04.450Z,96743.66
2023-04-25T01:15:32.724Z,96742.06
2023-04-25T01:18:02.519Z,96735.66
2023-04-25T01:20:31.804Z,96756.06
2023-04-25T01:23:03.386Z,96751.59
2023-04-25T01:25:32.239Z,96749.19
2023-04-25T01:28:01.143Z,96737.88
2023-04-25T01:30:29.948Z,96737.75
2023-04-25T01:32:58.904Z,96735.03
2023-04-25T01:35:27.151Z,96739.94
2023-04-25T01:37:56.386Z,96734.22
2023-04-25T01:40:26.813Z,96735.03
2023-04-25T01:42:55.132Z,96722.75
2023-04-25T01:45:24.347Z,96717.66
2023-04-25T01:47:52.485Z,96725.16
2023-04-25T01:50:21.436Z,96722.13
2023-04-25T01:52:50.732Z,96731.34
2023-04-25T01:55:18.928Z,96737.88
2023-04-25T01:57:48.737Z,96733.25
2023-04-25T02:00:17.178Z,96724.19
2023-04-25T02:02:45.536Z,96731.97
2023-04-25T02:05:14.591Z,96728.94
2023-04-25T02:07:42.779Z,96723.22
2023-04-25T02:10:11.674Z,96721.66
2023-04-25T02:12:40.365Z,96725.13
2023-04-25T02:15:11.017Z,96728.50
2023-04-25T02:17:40.673Z,96730.72
2023-04-25T02:20:09.581Z,96732.66
2023-04-25T02:22:38.075Z,96735.81
2023-04-25T02:25:07.625Z,96734.22
2023-04-25T02:27:36.000Z,96730.38
2023-04-25T02:30:06.204Z,96719.44
2023-04-25T02:32:37.345Z,96711.94
